createdAt,value
2019-02-18T00:00:57.715Z,90.50
2019-02-18T00:03:23.750Z,90.50
2019-02-18T00:05:49.797Z,90.60
2019-02-18T00:08:15.826Z,90.70
2019-02-18T00:10:41.902Z,90.70
2019-02-18T00:13:07.958Z,90.70
2019-02-18T00:15:33.975Z,90.80
2019-02-18T00:18:00.023Z,90.70
2019-02-18T00:20:26.036Z,90.70
2019-02-18T00:22:52.163Z,90.80
2019-02-18T00:25:18.180Z,90.80
2019-02-18T00:27:44.223Z,90.90
2019-02-18T00:30:10.443Z,91.00
2019-02-18T00:32:36.488Z,91.10
2019-02-18T00:35:02.804Z,91.20
2019-02-18T00:37:28.848Z,91.00
2019-02-18T00:39:55.071Z,91.00
2019-02-18T00:42:21.147Z,90.90
2019-02-18T00:44:47.164Z,91.20
2019-02-18T00:47:13.201Z,91.30
2019-02-18T00:49:39.212Z,91.30
2019-02-18T00:52:05.268Z,91.20
2019-02-18T00:54:31.280Z,91.10
2019-02-18T00:56:57.319Z,91.10
2019-02-18T00:59:23.327Z,91.30
2019-02-18T01:01:49.460Z,91.30
2019-02-18T01:04:15.471Z,91.20
2019-02-18T01:06:41.486Z,91.30
2019-02-18T01:09:08.620Z,91.50
2019-02-18T01:11:34.633Z,91.30
2019-02-18T01:14:01.628Z,91.20
2019-02-18T01:16:27.664Z,91.20
2019-02-18T01:18:53.687Z,91.10
2019-02-18T01:21:19.716Z,91.20
2019-02-18T01:23:45.852Z,91.20
2019-02-18T01:26:11.864Z,91.40
2019-02-18T01:28:37.895Z,91.40
2019-02-18T01:31:03.906Z,91.20
2019-02-18T01:33:29.935Z,91.20
2019-02-18T01:35:55.948Z,91.20
2019-02-18T01:38:21.987Z,91.40
2019-02-18T01:40:47.995Z,91.60
2019-02-18T01:43:14.026Z,91.40
2019-02-18T01:45:40.044Z,91.40
2019-02-18T01:48:06.131Z,91.30
2019-02-18T01:50:32.223Z,91.30
2019-02-18T01:52:58.287Z,91.60
2019-02-18T01:55:24.303Z,91.50
2019-02-18T01:57:50.325Z,91.50
2019-02-18T02:00:16.336Z,91.40
2019-02-18T02:02:42.543Z,91.40
2019-02-18T02:05:08.755Z,91.60
2019-02-18T02:07:56.643Z,91.90
2019-02-18T02:10:22.706Z,91.70
2019-02-18T02:12:48.759Z,91.70
2019-02-18T02:15:24.283Z,91.80
2019-02-18T02:17:50.328Z,91.90
2019-02-18T02:20:16.347Z,91.80
2019-02-18T02:22:42.364Z,91.80
2019-02-18T02:25:08.599Z,92.10
2019-02-18T02:27:34.611Z,91.90
2019-02-18T02:30:01.473Z,91.90
2019-02-18T02:32:27.502Z,91.90
2019-02-18T02:34:53.538Z,91.90
2019-02-18T02:37:19.551Z,91.80
2019-02-18T02:39:45.599Z,91.80
2019-02-18T02:42:11.695Z,91.90
2019-02-18T02:44:37.787Z,92.00
2019-02-18T02:47:03.796Z,92.00
2019-02-18T02:49:29.828Z,92.00
2019-02-18T02:51:55.917Z,92.20
2019-02-18T02:54:21.951Z,92.10
2019-02-18T02:56:47.978Z,92.20
2019-02-18T02:59:14.003Z,92.20
2019-02-18T03:01:40.024Z,92.10
2019-02-18T03:04:06.223Z,92.20
2019-02-18T03:06:32.291Z,92.20
2019-02-18T03:08:58.427Z,92.30
2019-02-18T03:11:24.435Z,92.40
2019-02-18T03:13:50.472Z,92.30
2019-02-18T03:16:16.487Z,92.40
2019-02-18T03:18:42.515Z,92.20
2019-02-18T03:21:08.531Z,92.20
2019-02-18T03:23:34.562Z,92.20
2019-02-18T03:26:00.577Z,92.30
2019-02-18T03:28:41.963Z,92.30
2019-02-18T03:31:11.810Z,92.20
2019-02-18T03:33:44.469Z,92.30
2019-02-18T03:36:10.491Z,92.40
2019-02-18T03:38:36.523Z,92.50
2019-02-18T03:41:03.543Z,92.70
2019-02-18T03:43:29.863Z,92.50
2019-02-18T03:45:55.919Z,92.60
2019-02-18T03:48:21.947Z,92.40
2019-02-18T03:50:47.984Z,92.30
2019-02-18T03:53:13.999Z,92.30
2019-02-18T03:55:40.029Z,92.50
2019-02-18T03:58:06.047Z,92.60
2019-02-18T04:00:32.182Z,92.60
2019-02-18T04:02:58.296Z,92.60
2019-02-18T04:05:24.329Z,92.40
2019-02-18T04:07:50.349Z,92.50
2019-02-18T04:10:16.389Z,92.60
2019-02-18T04:12:42.401Z,92.50
2019-02-18T04:15:11.030Z,92.50
2019-02-18T04:17:37.051Z,92.60
2019-02-18T04:20:04.823Z,92.60
2019-02-18T04:22:30.851Z,92.50
2019-02-18T04:24:56.874Z,92.40
2019-02-18T04:27:22.902Z,92.50
2019-02-18T04:29:48.919Z,92.60
2019-02-18T04:32:14.948Z,92.60
2019-02-18T04:34:40.968Z,92.60
2019-02-18T04:37:07.035Z,92.60
2019-02-18T04:39:33.050Z,92.50
2019-02-18T04:41:59.080Z,92.60
2019-02-18T04:44:25.122Z,92.50
2019-02-18T04:46:51.147Z,92.70
2019-02-18T04:49:17.160Z,92.70
2019-02-18T04:51:43.197Z,92.80
2019-02-18T04:54:09.205Z,92.80
2019-02-18T04:56:35.232Z,92.70
2019-02-18T04:59:01.245Z,92.70
2019-02-18T05:01:27.272Z,92.80
2019-02-18T05:03:53.290Z,92.90
2019-02-18T05:06:19.311Z,93.00
2019-02-18T05:08:45.329Z,93.00
2019-02-18T05:11:11.389Z,93.00
2019-02-18T05:13:37.489Z,92.90
2019-02-18T05:16:03.521Z,92.90
2019-02-18T05:18:29.535Z,92.90
2019-02-18T05:20:55.554Z,92.80
2019-02-18T05:23:21.635Z,92.80
2019-02-18T05:25:47.643Z,92.90
2019-02-18T05:28:13.684Z,92.70
2019-02-18T05:30:39.705Z,93.00
2019-02-18T05:33:05.769Z,93.00
2019-02-18T05:35:31.770Z,93.00
2019-02-18T05:37:57.805Z,92.90
2019-02-18T05:40:23.835Z,92.90
2019-02-18T05:42:49.864Z,92.70
2019-02-18T05:45:15.875Z,92.70
2019-02-18T05:47:41.907Z,92.70
2019-02-18T05:50:08.029Z,92.90
2019-02-18T05:52:34.060Z,93.30
2019-02-18T05:55:00.407Z,93.10
2019-02-18T05:57:26.651Z,93.20
2019-02-18T05:59:52.688Z,93.10
2019-02-18T06:02:20.623Z,93.40
2019-02-18T06:04:46.644Z,93.20
2019-02-18T06:07:12.688Z,93.00
2019-02-18T06:09:38.704Z,93.00
2019-02-18T06:12:04.741Z,92.90
2019-02-18T06:14:30.759Z,92.80
2019-02-18T06:16:56.805Z,93.00
2019-02-18T06:19:22.815Z,93.20
2019-02-18T06:21:48.837Z,93.10
2019-02-18T06:24:14.867Z,93.10
2019-02-18T06:26:40.896Z,93.00
2019-02-18T06:29:06.989Z,93.00
2019-02-18T06:31:33.020Z,93.10
2019-02-18T06:33:59.051Z,93.20
2019-02-18T06:36:25.151Z,93.30
2019-02-18T06:38:51.211Z,93.40
2019-02-18T06:41:17.216Z,93.20
2019-02-18T06:43:43.275Z,93.20
2019-02-18T06:46:13.695Z,93.10
2019-02-18T06:48:41.632Z,93.10
2019-02-18T06:51:07.643Z,93.00
2019-02-18T06:53:33.671Z,93.00
2019-02-18T06:55:59.689Z,93.20
2019-02-18T06:58:30.300Z,93.20
2019-02-18T07:01:14.860Z,93.20
2019-02-18T07:03:48.671Z,93.10
2019-02-18T07:06:16.588Z,95.60
2019-02-18T07:08:44.525Z,95.20
2019-02-18T07:11:32.320Z,93.00
2019-02-18T07:13:58.355Z,92.80
2019-02-18T07:16:24.383Z,92.70
2019-02-18T07:18:50.412Z,92.40
2019-02-18T07:21:16.423Z,92.30
2019-02-18T07:23:42.451Z,92.20
2019-02-18T07:26:08.463Z,92.10
2019-02-18T07:28:34.499Z,92.00
2019-02-18T07:31:00.555Z,91.80
2019-02-18T07:33:26.595Z,91.70
2019-02-18T07:35:52.611Z,91.70
2019-02-18T07:38:18.643Z,91.60
2019-02-18T07:40:44.660Z,91.70
2019-02-18T07:43:10.692Z,91.60
2019-02-18T07:45:42.524Z,91.60
2019-02-18T07:48:08.567Z,91.50
2019-02-18T07:50:34.576Z,91.40
2019-02-18T07:53:01.095Z,91.20
2019-02-18T07:55:27.123Z,91.20
2019-02-18T07:57:53.160Z,91.20
2019-02-18T08:00:19.171Z,91.40
2019-02-18T08:02:45.188Z,91.30
2019-02-18T08:05:11.227Z,92.50
2019-02-18T08:07:37.239Z,91.10
2019-02-18T08:10:12.101Z,90.80
2019-02-18T08:12:34.919Z,92.10
2019-02-18T08:15:02.597Z,91.20
2019-02-18T08:17:28.617Z,90.50
2019-02-18T08:19:54.640Z,90.70
2019-02-18T08:22:20.659Z,90.90
2019-02-18T08:24:46.688Z,89.70
2019-02-18T08:27:12.699Z,90.10
2019-02-18T08:29:38.734Z,90.40
2019-02-18T08:32:04.747Z,89.80
2019-02-18T08:34:30.775Z,89.60
2019-02-18T08:36:56.887Z,89.00
2019-02-18T08:39:23.004Z,87.60
2019-02-18T08:41:49.035Z,89.10
2019-02-18T08:44:15.078Z,87.40
2019-02-18T08:46:41.090Z,88.20
2019-02-18T08:49:07.144Z,87.00
2019-02-18T08:51:33.243Z,87.10
2019-02-18T08:53:59.284Z,86.90
2019-02-18T08:56:25.320Z,87.90
2019-02-18T08:58:51.384Z,86.00
2019-02-18T09:01:17.407Z,85.50
2019-02-18T09:03:43.431Z,84.80
2019-02-18T09:06:09.468Z,84.10
2019-02-18T09:08:35.503Z,84.20
2019-02-18T09:11:01.516Z,83.90
2019-02-18T09:13:27.547Z,83.70
2019-02-18T09:16:00.131Z,83.70
2019-02-18T09:18:21.601Z,83.30
2019-02-18T09:20:47.610Z,83.20
2019-02-18T09:23:15.550Z,83.10
2019-02-18T09:25:43.694Z,82.90
2019-02-18T09:28:09.827Z,83.00
2019-02-18T09:30:37.743Z,82.50
2019-02-18T09:33:04.180Z,82.40
2019-02-18T09:35:30.287Z,82.40
2019-02-18T09:37:56.427Z,82.00
2019-02-18T09:40:22.452Z,82.00
2019-02-18T09:42:48.484Z,81.40
2019-02-18T09:45:14.983Z,81.00
2019-02-18T09:47:41.507Z,82.20
2019-02-18T09:50:08.739Z,81.20
2019-02-18T09:52:34.767Z,80.90
2019-02-18T09:55:02.495Z,80.70
2019-02-18T09:57:28.511Z,80.80
2019-02-18T09:59:54.539Z,80.50
2019-02-18T10:02:20.628Z,79.90
2019-02-18T10:04:46.661Z,79.80
2019-02-18T10:07:12.672Z,79.20
2019-02-18T10:09:38.703Z,79.30
2019-02-18T10:12:04.719Z,78.50
2019-02-18T10:14:30.775Z,78.40
2019-02-18T10:16:56.789Z,78.50
2019-02-18T10:19:22.883Z,78.30
2019-02-18T10:21:48.899Z,77.80
2019-02-18T10:24:14.943Z,77.10
2019-02-18T10:26:40.949Z,78.40
2019-02-18T10:29:07.094Z,78.40
2019-02-18T10:31:33.104Z,78.30
2019-02-18T10:33:59.135Z,77.60
2019-02-18T10:36:25.167Z,77.20
2019-02-18T10:38:51.260Z,77.60
2019-02-18T10:41:19.191Z,76.70
2019-02-18T10:43:45.188Z,75.30
2019-02-18T10:46:11.219Z,75.60
2019-02-18T10:48:37.549Z,74.40
2019-02-18T10:51:03.579Z,75.80
2019-02-18T10:53:29.612Z,75.10
2019-02-18T10:55:55.644Z,74.10
2019-02-18T10:58:21.659Z,74.50
2019-02-18T11:00:47.732Z,74.40
2019-02-18T11:03:13.752Z,74.00
2019-02-18T11:05:39.984Z,73.40
2019-02-18T11:08:05.995Z,73.20
2019-02-18T11:10:32.974Z,72.60
2019-02-18T11:12:59.046Z,72.30
2019-02-18T11:15:25.589Z,72.40
2019-02-18T11:17:51.603Z,69.90
2019-02-18T11:20:17.639Z,70.70
2019-02-18T11:22:43.659Z,69.10
2019-02-18T11:25:10.700Z,68.80
2019-02-18T11:27:36.859Z,65.40
2019-02-18T11:30:07.075Z,64.60
2019-02-18T11:32:33.391Z,64.50
2019-02-18T11:35:00.613Z,63.10
2019-02-18T11:37:26.959Z,60.40
2019-02-18T11:39:52.992Z,61.30
2019-02-18T11:42:19.063Z,61.20
2019-02-18T11:44:45.100Z,62.60
2019-02-18T11:47:11.116Z,61.60
2019-02-18T11:49:37.147Z,61.80
2019-02-18T11:52:03.175Z,60.10
2019-02-18T11:54:29.272Z,60.20
2019-02-18T11:56:55.305Z,60.80
2019-02-18T11:59:24.313Z,60.70
2019-02-18T12:01:49.255Z,59.10
2019-02-18T12:04:15.268Z,59.30
2019-02-18T12:06:41.409Z,60.00
2019-02-18T12:09:07.820Z,59.10
2019-02-18T12:14:01.837Z,58.70
2019-02-18T12:16:27.908Z,58.30
2019-02-18T12:18:54.011Z,59.30
2019-02-18T12:21:20.045Z,58.90
2019-02-18T12:23:46.140Z,56.80
2019-02-18T12:26:12.175Z,56.50
2019-02-18T12:28:38.187Z,56.30
2019-02-18T12:31:04.743Z,55.20
2019-02-18T12:33:30.754Z,55.70
2019-02-18T12:35:56.779Z,55.90
2019-02-18T12:38:22.795Z,56.40
2019-02-18T12:40:48.827Z,55.90
2019-02-18T12:43:14.845Z,55.70
2019-02-18T12:45:40.881Z,55.80
2019-02-18T12:48:06.923Z,55.10
2019-02-18T12:50:33.256Z,54.40
2019-02-18T12:52:59.290Z,54.50
2019-02-18T12:55:25.650Z,53.80
2019-02-18T12:57:51.884Z,53.90
2019-02-18T13:00:18.037Z,53.20
2019-02-18T13:02:45.193Z,53.30
2019-02-18T13:05:11.568Z,53.30
2019-02-18T13:07:37.700Z,53.20
2019-02-18T13:10:06.316Z,53.70
2019-02-18T13:12:32.436Z,54.60
2019-02-18T13:14:58.971Z,54.70
2019-02-18T13:17:25.003Z,54.70
2019-02-18T13:19:51.014Z,55.40
2019-02-18T13:22:17.143Z,53.90
2019-02-18T13:24:43.447Z,53.90
2019-02-18T13:27:09.584Z,53.10
2019-02-18T13:29:35.595Z,51.70
2019-02-18T13:32:01.638Z,51.30
2019-02-18T13:34:27.768Z,50.00
2019-02-18T13:36:56.003Z,50.60
2019-02-18T13:39:22.006Z,50.50
2019-02-18T13:41:48.039Z,49.70
2019-02-18T13:44:14.064Z,48.50
2019-02-18T13:46:40.095Z,48.50
2019-02-18T13:49:06.107Z,49.00
2019-02-18T13:51:32.143Z,49.50
2019-02-18T13:53:58.197Z,50.70
2019-02-18T13:56:24.228Z,51.20
2019-02-18T13:58:50.539Z,50.50
2019-02-18T14:01:16.567Z,49.50
2019-02-18T14:03:42.583Z,48.90
2019-02-18T14:06:08.723Z,48.50
2019-02-18T14:08:34.746Z,48.70
2019-02-18T14:11:01.989Z,48.80
2019-02-18T14:13:27.999Z,48.10
2019-02-18T14:15:54.038Z,47.50
2019-02-18T14:18:20.348Z,47.50
2019-02-18T14:20:46.359Z,44.40
2019-02-18T14:23:12.405Z,45.40
2019-02-18T14:25:38.524Z,44.10
2019-02-18T14:28:04.550Z,42.00
2019-02-18T14:30:30.571Z,41.00
2019-02-18T14:32:56.609Z,41.50
2019-02-18T14:35:22.622Z,41.70
2019-02-18T14:37:49.147Z,40.00
2019-02-18T14:40:17.171Z,40.20
2019-02-18T14:42:43.211Z,39.10
2019-02-18T14:45:09.746Z,39.30
2019-02-18T14:47:35.855Z,38.60
2019-02-18T14:50:02.469Z,40.10
2019-02-18T14:52:28.695Z,39.20
2019-02-18T14:54:55.255Z,40.40
2019-02-18T14:57:21.651Z,39.30
2019-02-18T14:59:47.664Z,39.60
2019-02-18T15:02:13.926Z,40.20
2019-02-18T15:04:40.039Z,40.10
2019-02-18T15:07:06.843Z,40.10
2019-02-18T15:09:32.968Z,40.80
2019-02-18T15:11:58.987Z,39.70
2019-02-18T15:14:25.021Z,39.30
2019-02-18T15:16:51.347Z,38.50
2019-02-18T15:19:17.355Z,38.30
2019-02-18T15:21:43.436Z,38.70
2019-02-18T15:24:09.460Z,39.90
2019-02-18T15:26:35.487Z,39.10
2019-02-18T15:29:01.504Z,39.40
2019-02-18T15:31:27.551Z,39.10
2019-02-18T15:33:53.611Z,38.80
2019-02-18T15:36:20.047Z,40.30
2019-02-18T15:38:46.086Z,39.10
2019-02-18T15:41:12.171Z,40.10
2019-02-18T15:43:38.207Z,40.10
2019-02-18T15:46:04.951Z,40.30
2019-02-18T15:48:30.987Z,40.90
2019-02-18T15:50:57.202Z,40.70
2019-02-18T15:53:23.233Z,41.40
2019-02-18T15:55:49.561Z,42.30
2019-02-18T15:58:15.598Z,41.90
2019-02-18T16:00:41.712Z,42.40
2019-02-18T16:03:27.626Z,42.90
2019-02-18T16:05:53.823Z,43.50
2019-02-18T16:08:19.874Z,42.60
2019-02-18T16:10:46.387Z,43.30
2019-02-18T16:13:15.327Z,43.20
2019-02-18T16:15:41.338Z,42.60
2019-02-18T16:18:07.591Z,43.40
2019-02-18T16:20:33.668Z,44.50
2019-02-18T16:25:34.075Z,44.60
2019-02-18T16:28:02.223Z,44.50
2019-02-18T16:30:28.287Z,44.90
2019-02-18T16:32:54.776Z,46.00
2019-02-18T16:35:20.888Z,46.40
2019-02-18T16:37:47.051Z,47.10
2019-02-18T16:40:16.759Z,47.80
2019-02-18T16:42:42.892Z,48.20
2019-02-18T16:45:11.672Z,48.90
2019-02-18T16:47:37.791Z,49.60
2019-02-18T16:50:05.040Z,49.60
2019-02-18T16:52:31.188Z,50.00
2019-02-18T16:54:57.223Z,51.00
2019-02-18T16:57:23.250Z,52.40
2019-02-18T16:59:49.274Z,52.80
2019-02-18T17:02:15.311Z,53.40
2019-02-18T17:04:41.767Z,53.80
2019-02-18T17:09:47.352Z,54.40
2019-02-18T17:12:33.268Z,55.20
2019-02-18T17:14:59.287Z,55.20
2019-02-18T17:17:25.439Z,56.00
2019-02-18T17:19:51.527Z,56.80
2019-02-18T17:22:17.559Z,57.30
2019-02-18T17:24:43.571Z,56.90
2019-02-18T17:27:09.759Z,58.70
2019-02-18T17:29:36.580Z,59.20
2019-02-18T17:32:03.038Z,59.70
2019-02-18T17:34:29.349Z,60.10
2019-02-18T17:36:55.699Z,60.40
2019-02-18T17:39:21.723Z,61.20
2019-02-18T17:41:47.775Z,61.80
2019-02-18T17:44:20.036Z,62.40
2019-02-18T17:46:41.759Z,62.60
2019-02-18T17:49:07.787Z,62.40
2019-02-18T17:51:33.948Z,63.60
2019-02-18T17:53:59.973Z,64.10
2019-02-18T17:56:26.320Z,64.40
2019-02-18T17:58:52.644Z,65.00
2019-02-18T18:01:18.708Z,66.00
2019-02-18T18:03:44.828Z,66.60
2019-02-18T18:06:30.728Z,66.70
2019-02-18T18:08:56.853Z,66.50
2019-02-18T18:11:23.369Z,66.70
2019-02-18T18:13:49.423Z,68.10
2019-02-18T18:16:15.478Z,67.50
2019-02-18T18:18:41.648Z,68.60
2019-02-18T18:21:07.663Z,69.10
2019-02-18T18:23:33.705Z,68.90
2019-02-18T18:25:59.720Z,68.90
2019-02-18T18:28:25.781Z,69.70
2019-02-18T18:30:51.852Z,70.20
2019-02-18T18:33:18.933Z,70.60
2019-02-18T18:35:45.000Z,70.90
2019-02-18T18:38:11.040Z,71.60
2019-02-18T18:40:37.057Z,72.30
2019-02-18T18:43:03.126Z,73.00
2019-02-18T18:45:29.168Z,74.30
2019-02-18T18:47:55.272Z,74.20
2019-02-18T18:50:21.787Z,74.50
2019-02-18T18:52:47.803Z,75.30
2019-02-18T18:55:14.048Z,75.40
2019-02-18T18:57:40.055Z,75.30
2019-02-18T19:00:09.791Z,74.80
2019-02-18T19:02:35.806Z,75.00
2019-02-18T19:05:03.039Z,75.10
2019-02-18T19:07:29.213Z,76.40
2019-02-18T19:09:55.910Z,76.50
2019-02-18T19:12:21.928Z,76.70
2019-02-18T19:14:47.990Z,77.10
2019-02-18T19:17:14.014Z,77.50
2019-02-18T19:19:40.044Z,77.70
2019-02-18T19:22:06.059Z,77.70
2019-02-18T19:24:32.091Z,78.30
2019-02-18T19:26:58.107Z,78.90
2019-02-18T19:29:24.151Z,78.20
2019-02-18T19:31:50.173Z,78.80
2019-02-18T19:34:16.203Z,79.70
2019-02-18T19:36:42.215Z,79.50
2019-02-18T19:39:08.255Z,79.30
2019-02-18T19:41:34.271Z,79.70
2019-02-18T19:44:00.299Z,80.10
2019-02-18T19:46:26.515Z,80.80
2019-02-18T19:48:52.547Z,80.40
2019-02-18T19:51:18.563Z,80.50
2019-02-18T19:53:44.603Z,80.50
2019-02-18T19:56:10.723Z,80.40
2019-02-18T19:58:36.752Z,80.70
2019-02-18T20:01:02.768Z,81.30
2019-02-18T20:03:28.786Z,81.60
2019-02-18T20:05:55.223Z,81.80
2019-02-18T20:08:21.259Z,82.00
2019-02-18T20:10:47.335Z,82.40
2019-02-18T20:13:13.351Z,82.30
2019-02-18T20:15:40.047Z,82.70
2019-02-18T20:18:06.059Z,83.10
2019-02-18T20:20:32.144Z,83.50
2019-02-18T20:22:58.157Z,84.10
2019-02-18T20:25:24.687Z,84.40
2019-02-18T20:27:50.887Z,84.00
2019-02-18T20:30:16.923Z,84.20
2019-02-18T20:32:42.939Z,84.30
2019-02-18T20:35:09.766Z,84.50
2019-02-18T20:37:35.779Z,84.70
2019-02-18T20:40:01.839Z,84.80
2019-02-18T20:42:27.979Z,85.00
2019-02-18T20:44:54.448Z,84.80
2019-02-18T20:47:21.505Z,84.90
2019-02-18T20:49:47.704Z,84.70
2019-02-18T20:52:13.718Z,85.10
2019-02-18T20:54:39.764Z,85.40
2019-02-18T20:57:05.807Z,85.80
2019-02-18T20:59:31.852Z,86.10
2019-02-18T21:01:57.863Z,86.50
2019-02-18T21:04:24.375Z,86.00
2019-02-18T21:06:50.419Z,85.90
2019-02-18T21:09:16.435Z,86.00
2019-02-18T21:11:42.475Z,86.40
2019-02-18T21:14:15.868Z,86.80
2019-02-18T21:16:36.512Z,86.90
2019-02-18T21:19:02.727Z,87.30
2019-02-18T21:26:33.636Z,87.40
2019-02-18T21:28:59.756Z,87.70
2019-02-18T21:31:25.825Z,87.80
2019-02-18T21:33:51.894Z,87.60
2019-02-18T21:36:18.363Z,87.40
2019-02-18T21:38:44.374Z,87.70
2019-02-18T21:41:10.811Z,88.10
2019-02-18T21:43:36.907Z,88.10
2019-02-18T21:46:02.947Z,88.30
2019-02-18T21:48:29.052Z,88.10
2019-02-18T21:50:55.079Z,88.20
2019-02-18T21:53:21.094Z,88.50
2019-02-18T21:55:47.543Z,88.90
2019-02-18T21:58:14.741Z,89.10
2019-02-18T22:00:41.032Z,89.30
2019-02-18T22:03:07.048Z,89.20
2019-02-18T22:05:33.158Z,88.70
2019-02-18T22:08:00.409Z,88.50
2019-02-18T22:10:26.603Z,88.50
2019-02-18T22:12:52.619Z,88.60
2019-02-18T22:15:18.651Z,88.50
2019-02-18T22:17:44.663Z,88.60
2019-02-18T22:20:12.379Z,88.60
2019-02-18T22:22:38.419Z,89.40
2019-02-18T22:25:09.646Z,90.10
2019-02-18T22:27:35.762Z,89.50
2019-02-18T22:30:04.292Z,89.50
2019-02-18T22:32:30.320Z,89.50
2019-02-18T22:34:56.335Z,90.00
2019-02-18T22:37:22.394Z,89.70
2019-02-18T22:39:48.817Z,89.70
2019-02-18T22:42:14.851Z,89.80
2019-02-18T22:44:42.088Z,90.00
2019-02-18T22:47:08.323Z,90.10
2019-02-18T22:49:34.338Z,90.30
2019-02-18T22:52:01.302Z,90.40
2019-02-18T22:54:27.328Z,90.30
2019-02-18T22:56:53.361Z,90.30
2019-02-18T22:59:19.375Z,90.40
2019-02-18T23:01:45.815Z,90.50
2019-02-18T23:04:11.872Z,90.70
2019-02-18T23:06:37.908Z,90.70
2019-02-18T23:09:06.464Z,90.70
2019-02-18T23:11:32.491Z,90.70
2019-02-18T23:13:58.511Z,90.60
2019-02-18T23:16:24.543Z,90.70
2019-02-18T23:18:50.559Z,90.60
2019-02-18T23:21:16.620Z,90.60
2019-02-18T23:23:42.635Z,90.50
2019-02-18T23:26:08.668Z,90.60
2019-02-18T23:28:34.695Z,90.70
2019-02-18T23:31:00.883Z,90.60
2019-02-18T23:33:26.899Z,91.10
2019-02-18T23:35:52.936Z,91.20
2019-02-18T23:38:18.950Z,90.90
2019-02-18T23:40:44.998Z,90.80
2019-02-18T23:43:11.039Z,90.70
2019-02-18T23:45:37.093Z,90.70
2019-02-18T23:48:03.310Z,90.80
2019-02-18T23:50:29.319Z,90.70
2019-02-18T23:52:55.415Z,90.80
2019-02-18T23:55:21.427Z,90.80
2019-02-18T23:57:47.660Z,91.00
